createdAt,value
2019-03-17T00:02:29.349Z,1.40
2019-03-17T00:07:38.518Z,1.06
2019-03-17T00:12:47.574Z,1.59
2019-03-17T00:17:56.716Z,1.34
2019-03-17T00:23:05.805Z,1.13
2019-03-17T00:28:15.022Z,1.64
2019-03-17T00:33:24.078Z,1.26
2019-03-17T00:38:33.166Z,1.27
2019-03-17T00:43:42.239Z,1.78
2019-03-17T00:48:51.347Z,1.39
2019-03-17T00:54:00.414Z,2.05
2019-03-17T00:59:09.557Z,2.16
2019-03-17T01:04:18.635Z,1.93
2019-03-17T01:09:27.789Z,2.38
2019-03-17T01:14:36.896Z,1.64
2019-03-17T01:19:46.102Z,1.75
2019-03-17T01:24:55.174Z,2.26
2019-03-17T01:30:04.247Z,2.26
2019-03-17T01:35:13.295Z,2.13
2019-03-17T01:40:22.698Z,1.63
2019-03-17T01:45:31.863Z,1.69
2019-03-17T01:50:40.977Z,1.89
2019-03-17T01:55:50.042Z,1.84
2019-03-17T02:00:59.182Z,1.75
2019-03-17T02:06:08.255Z,1.48
2019-03-17T02:11:17.360Z,0.93
2019-03-17T02:16:26.421Z,1.16
2019-03-17T02:21:35.550Z,0.94
2019-03-17T02:26:44.622Z,1.17
2019-03-17T02:31:53.779Z,1.21
2019-03-17T02:37:02.858Z,1.18
2019-03-17T02:42:11.990Z,0.98
2019-03-17T02:47:21.090Z,1.10
2019-03-17T02:52:30.218Z,1.40
2019-03-17T02:57:39.298Z,1.29
2019-03-17T03:02:48.342Z,1.59
2019-03-17T03:07:57.407Z,1.30
2019-03-17T03:13:06.534Z,1.38
2019-03-17T03:18:15.605Z,1.14
2019-03-17T03:23:24.764Z,1.43
2019-03-17T03:28:33.804Z,1.17
2019-03-17T03:33:44.171Z,1.27
2019-03-17T03:38:43.197Z,1.04
2019-03-17T03:43:52.362Z,1.18
2019-03-17T03:49:01.374Z,0.93
2019-03-17T03:54:10.549Z,1.18
2019-03-17T03:59:19.559Z,1.04
2019-03-17T04:04:28.698Z,1.31
2019-03-17T04:09:37.741Z,1.33
2019-03-17T04:14:46.922Z,0.91
2019-03-17T04:19:55.999Z,0.80
2019-03-17T04:25:05.179Z,0.80
2019-03-17T04:30:14.214Z,1.14
2019-03-17T04:35:23.342Z,0.97
2019-03-17T04:40:32.406Z,0.82
2019-03-17T04:45:41.538Z,1.03
2019-03-17T04:50:50.718Z,1.19
2019-03-17T04:55:59.890Z,1.28
2019-03-17T05:01:08.938Z,1.44
2019-03-17T05:06:18.018Z,1.32
2019-03-17T05:11:27.094Z,1.20
2019-03-17T05:16:36.324Z,1.25
2019-03-17T05:21:45.402Z,2.25
2019-03-17T05:26:54.541Z,2.09
2019-03-17T05:32:03.565Z,0.93
2019-03-17T05:37:12.709Z,0.75
2019-03-17T05:42:21.897Z,0.54
2019-03-17T05:47:31.030Z,0.65
2019-03-17T05:52:40.090Z,0.35
2019-03-17T05:57:49.223Z,0.44
2019-03-17T06:02:58.317Z,0.44
2019-03-17T06:08:07.444Z,0.40
2019-03-17T06:13:16.474Z,0.60
2019-03-17T06:18:25.650Z,1.00
2019-03-17T06:23:34.653Z,1.02
2019-03-17T06:28:43.786Z,1.09
2019-03-17T06:33:52.846Z,1.06
2019-03-17T06:39:02.257Z,0.94
2019-03-17T06:44:11.313Z,0.88
2019-03-17T06:49:20.390Z,1.16
2019-03-17T06:54:29.469Z,0.80
2019-03-17T06:59:38.570Z,0.40
2019-03-17T07:04:47.762Z,0.39
2019-03-17T07:09:57.271Z,0.45
2019-03-17T07:15:06.352Z,0.66
2019-03-17T07:20:15.429Z,0.64
2019-03-17T07:25:24.522Z,0.78
2019-03-17T07:30:33.686Z,0.81
2019-03-17T07:35:42.862Z,1.15
2019-03-17T07:40:51.962Z,0.91
2019-03-17T07:46:01.022Z,0.79
2019-03-17T07:51:10.141Z,0.84
2019-03-17T07:56:19.224Z,1.00
2019-03-17T08:01:28.470Z,0.97
2019-03-17T08:06:37.551Z,1.38
2019-03-17T08:11:46.734Z,1.03
2019-03-17T08:16:55.803Z,1.04
2019-03-17T08:22:05.167Z,1.17
2019-03-17T08:27:14.190Z,0.78
2019-03-17T08:32:23.324Z,0.83
2019-03-17T08:37:32.403Z,0.53
2019-03-17T08:42:44.770Z,0.86
2019-03-17T08:47:56.773Z,0.89
2019-03-17T08:52:52.429Z,1.07
2019-03-17T08:58:01.522Z,1.14
2019-03-17T09:03:10.595Z,1.11
2019-03-17T09:08:19.702Z,1.07
2019-03-17T09:13:28.790Z,0.91
2019-03-17T09:18:37.970Z,0.83
2019-03-17T09:23:47.030Z,0.87
2019-03-17T09:28:56.199Z,0.79
2019-03-17T09:34:05.256Z,1.79
2019-03-17T09:39:14.364Z,2.00
2019-03-17T09:44:23.400Z,2.72
2019-03-17T09:49:32.515Z,2.44
2019-03-17T09:54:41.594Z,1.76
2019-03-17T09:59:50.750Z,1.71
2019-03-17T10:05:00.558Z,2.35
2019-03-17T10:10:09.674Z,3.46
2019-03-17T10:15:18.758Z,4.32
2019-03-17T10:20:27.997Z,3.92
2019-03-17T10:25:36.954Z,3.54
2019-03-17T10:30:46.116Z,3.03
2019-03-17T10:35:55.207Z,2.93
2019-03-17T10:41:05.251Z,2.99
2019-03-17T10:46:04.274Z,3.75
2019-03-17T10:51:13.430Z,4.09
2019-03-17T10:56:22.678Z,3.85
2019-03-17T11:01:32.282Z,3.18
2019-03-17T11:06:41.365Z,3.71
2019-03-17T11:11:50.467Z,3.07
2019-03-17T11:16:59.611Z,2.94
2019-03-17T11:22:08.734Z,2.88
2019-03-17T11:27:17.786Z,2.92
2019-03-17T11:32:26.982Z,2.39
2019-03-17T11:37:36.014Z,2.67
2019-03-17T11:42:45.238Z,2.79
2019-03-17T11:47:54.332Z,2.37
2019-03-17T11:53:03.696Z,2.32
2019-03-17T11:58:12.750Z,2.28
2019-03-17T12:03:22.045Z,2.65
2019-03-17T12:08:31.274Z,2.38
2019-03-17T12:13:40.399Z,2.69
2019-03-17T12:18:49.918Z,2.50
2019-03-17T12:23:59.578Z,2.49
2019-03-17T12:29:08.667Z,2.49
2019-03-17T12:34:27.778Z,2.95
2019-03-17T12:39:26.390Z,3.56
2019-03-17T12:44:35.507Z,2.65
2019-03-17T12:49:44.522Z,2.66
2019-03-17T12:54:53.755Z,2.54
2019-03-17T13:00:02.842Z,2.02
2019-03-17T13:05:12.090Z,2.52
2019-03-17T13:10:21.124Z,2.38
2019-03-17T13:15:30.245Z,2.60
2019-03-17T13:20:39.333Z,3.01
2019-03-17T13:25:48.487Z,2.96
2019-03-17T13:30:57.590Z,2.32
2019-03-17T13:36:06.823Z,2.40
2019-03-17T13:41:15.836Z,1.84
2019-03-17T13:46:24.931Z,2.40
2019-03-17T13:51:33.983Z,2.01
2019-03-17T13:56:43.132Z,2.02
2019-03-17T14:01:52.283Z,2.14
2019-03-17T14:07:01.476Z,2.14
2019-03-17T14:12:10.582Z,2.25
2019-03-17T14:17:19.759Z,2.83
2019-03-17T14:22:28.796Z,2.95
2019-03-17T14:27:37.881Z,2.51
2019-03-17T14:32:46.895Z,2.62
2019-03-17T14:37:56.102Z,2.29
2019-03-17T14:43:05.129Z,2.18
2019-03-17T14:48:14.397Z,2.52
2019-03-17T14:53:23.472Z,2.33
2019-03-17T14:58:32.666Z,2.39
2019-03-17T15:03:41.728Z,2.08
2019-03-17T15:08:50.838Z,1.67
2019-03-17T15:14:00.251Z,2.02
2019-03-17T15:19:09.410Z,2.38
2019-03-17T15:24:18.481Z,2.79
2019-03-17T15:29:27.648Z,2.50
2019-03-17T15:34:36.701Z,2.66
2019-03-17T15:39:45.834Z,3.67
2019-03-17T15:44:54.894Z,3.77
2019-03-17T15:50:07.448Z,2.99
2019-03-17T15:55:06.486Z,2.76
2019-03-17T16:00:25.043Z,2.73
2019-03-17T16:05:24.238Z,2.98
2019-03-17T16:10:33.442Z,3.68
2019-03-17T16:15:42.678Z,3.40
2019-03-17T16:20:52.363Z,3.46
2019-03-17T16:26:01.747Z,3.33
2019-03-17T16:31:11.362Z,3.73
2019-03-17T16:36:19.462Z,5.74
2019-03-17T16:41:28.538Z,4.32
2019-03-17T16:46:37.579Z,2.48
2019-03-17T16:51:46.750Z,2.83
2019-03-17T16:56:55.789Z,2.57
2019-03-17T17:02:04.976Z,2.62
2019-03-17T17:07:14.066Z,3.00
2019-03-17T17:12:23.178Z,2.14
2019-03-17T17:17:32.434Z,2.65
2019-03-17T17:22:41.554Z,2.36
2019-03-17T17:27:50.650Z,2.32
2019-03-17T17:32:59.878Z,2.43
2019-03-17T17:38:08.926Z,2.10
2019-03-17T17:43:18.098Z,2.47
2019-03-17T17:48:27.179Z,2.82
2019-03-17T17:53:36.266Z,2.65
2019-03-17T17:58:45.341Z,2.28
2019-03-17T18:03:54.498Z,2.22
2019-03-17T18:09:03.527Z,2.35
2019-03-17T18:14:12.620Z,2.24
2019-03-17T18:19:21.686Z,2.82
2019-03-17T18:24:30.834Z,2.48
2019-03-17T18:29:39.886Z,2.34
2019-03-17T18:34:50.649Z,1.76
2019-03-17T18:39:57.648Z,2.29
2019-03-17T18:45:06.833Z,2.02
2019-03-17T18:50:20.611Z,2.03
2019-03-17T18:55:24.566Z,1.93
2019-03-17T19:00:33.671Z,2.59
2019-03-17T19:05:42.790Z,2.05
2019-03-17T19:10:51.892Z,1.87
2019-03-17T19:16:01.617Z,1.24
2019-03-17T19:21:10.641Z,1.62
2019-03-17T19:26:19.837Z,1.30
2019-03-17T19:31:28.883Z,1.22
2019-03-17T19:36:38.011Z,1.18
2019-03-17T19:41:47.103Z,1.21
2019-03-17T19:46:56.214Z,1.64
2019-03-17T19:52:05.430Z,1.16
2019-03-17T19:57:14.538Z,1.71
2019-03-17T20:02:23.634Z,1.58
2019-03-17T20:07:32.771Z,1.40
2019-03-17T20:12:41.921Z,1.42
2019-03-17T20:17:50.981Z,1.47
2019-03-17T20:23:00.030Z,3.09
2019-03-17T20:28:09.169Z,3.11
2019-03-17T20:33:18.286Z,2.43
2019-03-17T20:38:27.433Z,2.11
2019-03-17T20:43:36.502Z,3.41
2019-03-17T20:48:45.639Z,2.89
2019-03-17T20:53:54.674Z,2.56
2019-03-17T20:59:03.849Z,2.36
2019-03-17T21:04:12.903Z,2.11
2019-03-17T21:09:21.983Z,2.54
2019-03-17T21:14:31.058Z,2.22
2019-03-17T21:19:40.243Z,2.03
2019-03-17T21:24:49.322Z,1.81
2019-03-17T21:29:58.434Z,1.82
2019-03-17T21:35:07.529Z,1.58
2019-03-17T21:40:16.620Z,1.77
2019-03-17T21:45:27.500Z,1.91
2019-03-17T21:50:34.393Z,1.81
2019-03-17T21:55:43.447Z,1.76
2019-03-17T22:00:52.639Z,1.49
2019-03-17T22:06:02.355Z,1.88
2019-03-17T22:11:11.580Z,1.72
2019-03-17T22:16:20.644Z,1.56
2019-03-17T22:21:29.904Z,1.71
2019-03-17T22:26:38.982Z,1.67
2019-03-17T22:31:48.203Z,2.02
2019-03-17T22:36:57.182Z,1.97
2019-03-17T22:42:06.500Z,1.97
2019-03-17T22:47:15.698Z,2.12
2019-03-17T22:52:24.885Z,1.65
2019-03-17T22:57:33.979Z,1.57
2019-03-17T23:02:43.151Z,2.06
2019-03-17T23:07:52.219Z,1.74
2019-03-17T23:13:01.337Z,2.01
2019-03-17T23:18:10.436Z,2.25
2019-03-17T23:23:19.569Z,2.73
2019-03-17T23:28:28.693Z,1.91
2019-03-17T23:33:37.773Z,1.75
2019-03-17T23:38:46.837Z,2.31
2019-03-17T23:43:56.007Z,2.33
2019-03-17T23:49:05.066Z,1.98
2019-03-17T23:54:14.194Z,2.00
2019-03-17T23:59:23.394Z,1.97
